sensor_id;sensor_type;location;lat;lon;timestamp;temperature;humidity
30381;DHT22;17169;50.966;11.038;2023-06-10T00:00:49;18.90;91.50
30381;DHT22;17169;50.966;11.038;2023-06-10T00:03:52;18.90;91.60
30381;DHT22;17169;50.966;11.038;2023-06-10T00:06:55;18.90;91.90
30381;DHT22;17169;50.966;11.038;2023-06-10T00:09:58;18.90;91.80
30381;DHT22;17169;50.966;11.038;2023-06-10T00:13:02;18.80;91.90
30381;DHT22;17169;50.966;11.038;2023-06-10T00:16:05;18.80;92.00
30381;DHT22;17169;50.966;11.038;2023-06-10T00:19:07;18.70;92.00
30381;DHT22;17169;50.966;11.038;2023-06-10T00:22:09;18.70;92.00
30381;DHT22;17169;50.966;11.038;2023-06-10T00:25:13;18.70;92.10
30381;DHT22;17169;50.966;11.038;2023-06-10T00:28:16;18.70;92.20
30381;DHT22;17169;50.966;11.038;2023-06-10T00:31:19;18.60;92.30
30381;DHT22;17169;50.966;11.038;2023-06-10T00:34:21;18.60;92.40
30381;DHT22;17169;50.966;11.038;2023-06-10T00:37:23;18.60;92.50
30381;DHT22;17169;50.966;11.038;2023-06-10T00:40:26;18.50;92.50
30381;DHT22;17169;50.966;11.038;2023-06-10T00:43:29;18.50;92.60
30381;DHT22;17169;50.966;11.038;2023-06-10T00:46:32;18.40;92.60
30381;DHT22;17169;50.966;11.038;2023-06-10T00:49:35;18.40;92.60
30381;DHT22;17169;50.966;11.038;2023-06-10T00:52:37;18.40;92.70
30381;DHT22;17169;50.966;11.038;2023-06-10T00:55:41;18.30;92.60
30381;DHT22;17169;50.966;11.038;2023-06-10T00:58:44;18.30;92.70
30381;DHT22;17169;50.966;11.038;2023-06-10T01:01:47;18.30;92.70
30381;DHT22;17169;50.966;11.038;2023-06-10T01:04:49;18.20;92.80
30381;DHT22;17169;50.966;11.038;2023-06-10T01:08:01;18.20;92.70
30381;DHT22;17169;50.966;11.038;2023-06-10T01:11:11;18.10;92.80
30381;DHT22;17169;50.966;11.038;2023-06-10T01:14:17;18.10;92.90
30381;DHT22;17169;50.966;11.038;2023-06-10T01:17:20;18.00;93.00
30381;DHT22;17169;50.966;11.038;2023-06-10T01:20:22;17.90;92.80
30381;DHT22;17169;50.966;11.038;2023-06-10T01:23:26;17.90;93.10
30381;DHT22;17169;50.966;11.038;2023-06-10T01:26:30;17.90;93.00
30381;DHT22;17169;50.966;11.038;2023-06-10T01:29:38;17.80;92.90
30381;DHT22;17169;50.966;11.038;2023-06-10T01:32:45;17.80;93.10
30381;DHT22;17169;50.966;11.038;2023-06-10T01:35:50;17.80;93.10
30381;DHT22;17169;50.966;11.038;2023-06-10T01:38:55;17.80;93.40
30381;DHT22;17169;50.966;11.038;2023-06-10T01:41:58;17.70;93.30
30381;DHT22;17169;50.966;11.038;2023-06-10T01:45:01;17.70;93.50
30381;DHT22;17169;50.966;11.038;2023-06-10T01:48:04;17.70;93.50
30381;DHT22;17169;50.966;11.038;2023-06-10T01:51:06;17.70;93.60
30381;DHT22;17169;50.966;11.038;2023-06-10T01:54:10;17.60;93.60
30381;DHT22;17169;50.966;11.038;2023-06-10T01:57:12;17.50;93.80
30381;DHT22;17169;50.966;11.038;2023-06-10T02:00:15;17.50;93.70
30381;DHT22;17169;50.966;11.038;2023-06-10T02:03:18;17.40;93.90
30381;DHT22;17169;50.966;11.038;2023-06-10T02:06:20;17.30;94.00
30381;DHT22;17169;50.966;11.038;2023-06-10T02:09:24;17.20;94.00
30381;DHT22;17169;50.966;11.038;2023-06-10T02:12:27;17.00;94.40
30381;DHT22;17169;50.966;11.038;2023-06-10T02:15:29;16.90;94.60
30381;DHT22;17169;50.966;11.038;2023-06-10T02:18:33;16.80;94.70
30381;DHT22;17169;50.966;11.038;2023-06-10T02:21:35;16.70;95.20
30381;DHT22;17169;50.966;11.038;2023-06-10T02:24:39;16.60;95.50
30381;DHT22;17169;50.966;11.038;2023-06-10T02:27:41;16.40;95.90
30381;DHT22;17169;50.966;11.038;2023-06-10T02:30:44;16.30;96.20
30381;DHT22;17169;50.966;11.038;2023-06-10T02:33:47;16.30;96.50
30381;DHT22;17169;50.966;11.038;2023-06-10T02:36:50;16.30;96.80
30381;DHT22;17169;50.966;11.038;2023-06-10T02:39:54;16.30;96.90
30381;DHT22;17169;50.966;11.038;2023-06-10T02:42:56;16.30;97.10
30381;DHT22;17169;50.966;11.038;2023-06-10T02:45:59;16.40;97.30
30381;DHT22;17169;50.966;11.038;2023-06-10T02:49:01;16.30;97.20
30381;DHT22;17169;50.966;11.038;2023-06-10T02:52:04;16.20;97.50
30381;DHT22;17169;50.966;11.038;2023-06-10T02:55:10;16.20;97.70
30381;DHT22;17169;50.966;11.038;2023-06-10T02:58:12;16.10;98.00
30381;DHT22;17169;50.966;11.038;2023-06-10T03:01:16;16.10;98.30
30381;DHT22;17169;50.966;11.038;2023-06-10T03:04:18;15.90;98.70
30381;DHT22;17169;50.966;11.038;2023-06-10T03:07:21;16.00;98.90
30381;DHT22;17169;50.966;11.038;2023-06-10T03:10:25;16.00;99.10
30381;DHT22;17169;50.966;11.038;2023-06-10T03:13:27;15.90;99.30
30381;DHT22;17169;50.966;11.038;2023-06-10T03:16:30;16.00;99.40
30381;DHT22;17169;50.966;11.038;2023-06-10T03:19:32;16.00;99.50
30381;DHT22;17169;50.966;11.038;2023-06-10T03:22:35;15.90;99.50
30381;DHT22;17169;50.966;11.038;2023-06-10T03:25:40;16.00;99.80
30381;DHT22;17169;50.966;11.038;2023-06-10T03:28:42;15.90;99.90
30381;DHT22;17169;50.966;11.038;2023-06-10T03:31:44;15.90;99.90
30381;DHT22;17169;50.966;11.038;2023-06-10T03:34:47;15.90;99.90
30381;DHT22;17169;50.966;11.038;2023-06-10T03:37:49;15.90;99.90
30381;DHT22;17169;50.966;11.038;2023-06-10T03:40:53;15.80;99.90
30381;DHT22;17169;50.966;11.038;2023-06-10T03:43:55;15.80;99.90
30381;DHT22;17169;50.966;11.038;2023-06-10T03:46:58;15.90;99.90
30381;DHT22;17169;50.966;11.038;2023-06-10T03:50:01;15.90;99.90
30381;DHT22;17169;50.966;11.038;2023-06-10T03:53:04;16.00;99.90
30381;DHT22;17169;50.966;11.038;2023-06-10T03:56:08;16.00;99.90
30381;DHT22;17169;50.966;11.038;2023-06-10T03:59:10;16.00;99.90
30381;DHT22;17169;50.966;11.038;2023-06-10T04:02:12;16.20;99.90
30381;DHT22;17169;50.966;11.038;2023-06-10T04:05:16;16.30;99.90
30381;DHT22;17169;50.966;11.038;2023-06-10T04:08:19;16.30;99.90
30381;DHT22;17169;50.966;11.038;2023-06-10T04:11:23;16.30;99.90
30381;DHT22;17169;50.966;11.038;2023-06-10T04:14:25;16.40;99.90
30381;DHT22;17169;50.966;11.038;2023-06-10T04:17:27;16.40;99.90
30381;DHT22;17169;50.966;11.038;2023-06-10T04:20:30;16.30;99.90
30381;DHT22;17169;50.966;11.038;2023-06-10T04:23:32;16.40;99.90
30381;DHT22;17169;50.966;11.038;2023-06-10T04:26:36;16.40;99.90
30381;DHT22;17169;50.966;11.038;2023-06-10T04:29:39;16.40;99.90
30381;DHT22;17169;50.966;11.038;2023-06-10T04:32:41;16.50;99.90
30381;DHT22;17169;50.966;11.038;2023-06-10T04:35:43;16.50;99.90
30381;DHT22;17169;50.966;11.038;2023-06-10T04:38:48;16.70;99.90
30381;DHT22;17169;50.966;11.038;2023-06-10T04:41:54;16.80;99.90
30381;DHT22;17169;50.966;11.038;2023-06-10T04:44:57;16.70;99.90
30381;DHT22;17169;50.966;11.038;2023-06-10T04:47:59;16.70;99.90
30381;DHT22;17169;50.966;11.038;2023-06-10T04:51:01;16.80;99.90
30381;DHT22;17169;50.966;11.038;2023-06-10T04:54:04;16.80;99.90
30381;DHT22;17169;50.966;11.038;2023-06-10T04:57:08;16.90;99.90
30381;DHT22;17169;50.966;11.038;2023-06-10T05:00:13;17.00;99.90
30381;DHT22;17169;50.966;11.038;2023-06-10T05:03:15;17.00;99.90
30381;DHT22;17169;50.966;11.038;2023-06-10T05:06:17;17.00;99.90
30381;DHT22;17169;50.966;11.038;2023-06-10T05:09:20;17.20;99.90
30381;DHT22;17169;50.966;11.038;2023-06-10T05:12:23;17.30;99.90
30381;DHT22;17169;50.966;11.038;2023-06-10T05:15:26;17.40;99.90
30381;DHT22;17169;50.966;11.038;2023-06-10T05:18:28;17.60;99.90
30381;DHT22;17169;50.966;11.038;2023-06-10T05:21:30;17.80;99.90
30381;DHT22;17169;50.966;11.038;2023-06-10T05:24:33;18.00;99.80
30381;DHT22;17169;50.966;11.038;2023-06-10T05:27:37;18.10;99.50
30381;DHT22;17169;50.966;11.038;2023-06-10T05:30:40;18.20;99.30
30381;DHT22;17169;50.966;11.038;2023-06-10T05:33:42;18.30;99.30
30381;DHT22;17169;50.966;11.038;2023-06-10T05:36:45;18.50;99.40
30381;DHT22;17169;50.966;11.038;2023-06-10T05:39:47;18.60;99.50
30381;DHT22;17169;50.966;11.038;2023-06-10T05:42:51;18.70;99.40
30381;DHT22;17169;50.966;11.038;2023-06-10T05:45:53;18.80;99.30
30381;DHT22;17169;50.966;11.038;2023-06-10T05:48:55;18.90;99.30
30381;DHT22;17169;50.966;11.038;2023-06-10T05:51:58;19.10;99.40
30381;DHT22;17169;50.966;11.038;2023-06-10T05:55:00;19.20;99.20
30381;DHT22;17169;50.966;11.038;2023-06-10T05:58:04;19.30;99.00
30381;DHT22;17169;50.966;11.038;2023-06-10T06:01:06;19.40;98.90
30381;DHT22;17169;50.966;11.038;2023-06-10T06:04:08;19.50;98.70
30381;DHT22;17169;50.966;11.038;2023-06-10T06:07:11;19.60;98.50
30381;DHT22;17169;50.966;11.038;2023-06-10T06:10:13;19.80;98.30
30381;DHT22;17169;50.966;11.038;2023-06-10T06:13:17;19.80;98.20
30381;DHT22;17169;50.966;11.038;2023-06-10T06:16:19;19.90;98.00
30381;DHT22;17169;50.966;11.038;2023-06-10T06:19:22;20.00;97.80
30381;DHT22;17169;50.966;11.038;2023-06-10T06:22:24;20.10;97.80
30381;DHT22;17169;50.966;11.038;2023-06-10T06:25:26;20.20;97.80
30381;DHT22;17169;50.966;11.038;2023-06-10T06:28:30;20.20;97.60
30381;DHT22;17169;50.966;11.038;2023-06-10T06:31:32;20.30;97.40
30381;DHT22;17169;50.966;11.038;2023-06-10T06:34:35;20.30;97.50
30381;DHT22;17169;50.966;11.038;2023-06-10T06:37:37;20.40;97.30
30381;DHT22;17169;50.966;11.038;2023-06-10T06:40:39;20.50;97.20
30381;DHT22;17169;50.966;11.038;2023-06-10T06:43:43;20.50;97.10
30381;DHT22;17169;50.966;11.038;2023-06-10T06:46:45;20.60;97.10
30381;DHT22;17169;50.966;11.038;2023-06-10T06:49:48;20.70;97.20
30381;DHT22;17169;50.966;11.038;2023-06-10T06:52:50;20.80;97.00
30381;DHT22;17169;50.966;11.038;2023-06-10T06:55:53;20.80;96.90
30381;DHT22;17169;50.966;11.038;2023-06-10T06:58:57;20.90;96.90
30381;DHT22;17169;50.966;11.038;2023-06-10T07:01:59;21.00;96.80
30381;DHT22;17169;50.966;11.038;2023-06-10T07:05:02;21.10;96.70
30381;DHT22;17169;50.966;11.038;2023-06-10T07:08:04;21.10;96.60
30381;DHT22;17169;50.966;11.038;2023-06-10T07:11:07;21.20;96.60
30381;DHT22;17169;50.966;11.038;2023-06-10T07:14:10;21.30;96.60
30381;DHT22;17169;50.966;11.038;2023-06-10T07:17:13;21.30;96.60
30381;DHT22;17169;50.966;11.038;2023-06-10T07:20:15;21.30;96.50
30381;DHT22;17169;50.966;11.038;2023-06-10T07:23:19;21.40;96.70
30381;DHT22;17169;50.966;11.038;2023-06-10T07:26:22;21.50;96.40
30381;DHT22;17169;50.966;11.038;2023-06-10T07:29:26;21.50;96.20
30381;DHT22;17169;50.966;11.038;2023-06-10T07:32:28;21.60;96.20
30381;DHT22;17169;50.966;11.038;2023-06-10T07:35:30;21.70;96.10
30381;DHT22;17169;50.966;11.038;2023-06-10T07:38:32;21.60;96.10
30381;DHT22;17169;50.966;11.038;2023-06-10T07:41:35;21.70;96.20
30381;DHT22;17169;50.966;11.038;2023-06-10T07:44:38;21.80;96.20
30381;DHT22;17169;50.966;11.038;2023-06-10T07:47:42;21.90;96.10
30381;DHT22;17169;50.966;11.038;2023-06-10T07:50:45;21.90;96.00
30381;DHT22;17169;50.966;11.038;2023-06-10T07:53:47;22.10;96.00
30381;DHT22;17169;50.966;11.038;2023-06-10T07:56:49;22.10;96.00
30381;DHT22;17169;50.966;11.038;2023-06-10T07:59:55;22.20;96.00
30381;DHT22;17169;50.966;11.038;2023-06-10T08:02:58;22.20;96.00
30381;DHT22;17169;50.966;11.038;2023-06-10T08:06:01;22.30;95.70
30381;DHT22;17169;50.966;11.038;2023-06-10T08:09:03;22.40;95.80
30381;DHT22;17169;50.966;11.038;2023-06-10T08:12:07;22.50;95.90
30381;DHT22;17169;50.966;11.038;2023-06-10T08:15:11;22.60;96.00
30381;DHT22;17169;50.966;11.038;2023-06-10T08:18:13;22.70;95.70
30381;DHT22;17169;50.966;11.038;2023-06-10T08:21:15;22.80;95.70
30381;DHT22;17169;50.966;11.038;2023-06-10T08:24:18;22.90;95.60
30381;DHT22;17169;50.966;11.038;2023-06-10T08:27:21;23.00;95.60
30381;DHT22;17169;50.966;11.038;2023-06-10T08:30:25;23.00;95.20
30381;DHT22;17169;50.966;11.038;2023-06-10T08:33:27;23.10;95.40
30381;DHT22;17169;50.966;11.038;2023-06-10T08:36:29;23.20;95.30
30381;DHT22;17169;50.966;11.038;2023-06-10T08:39:32;23.20;95.20
30381;DHT22;17169;50.966;11.038;2023-06-10T08:42:39;23.40;95.10
30381;DHT22;17169;50.966;11.038;2023-06-10T08:45:47;23.50;95.10
30381;DHT22;17169;50.966;11.038;2023-06-10T08:48:53;23.60;94.80
30381;DHT22;17169;50.966;11.038;2023-06-10T08:51:59;23.60;94.80
30381;DHT22;17169;50.966;11.038;2023-06-10T08:55:04;23.70;94.80
30381;DHT22;17169;50.966;11.038;2023-06-10T08:58:07;23.80;94.60
30381;DHT22;17169;50.966;11.038;2023-06-10T09:01:11;23.80;94.70
30381;DHT22;17169;50.966;11.038;2023-06-10T09:04:14;23.90;94.40
30381;DHT22;17169;50.966;11.038;2023-06-10T09:07:17;23.90;94.40
30381;DHT22;17169;50.966;11.038;2023-06-10T09:10:20;24.00;94.10
30381;DHT22;17169;50.966;11.038;2023-06-10T09:13:22;24.10;94.20
30381;DHT22;17169;50.966;11.038;2023-06-10T09:16:26;24.20;94.40
30381;DHT22;17169;50.966;11.038;2023-06-10T09:19:29;24.30;94.00
30381;DHT22;17169;50.966;11.038;2023-06-10T09:22:33;24.30;93.90
30381;DHT22;17169;50.966;11.038;2023-06-10T09:25:37;24.30;93.80
30381;DHT22;17169;50.966;11.038;2023-06-10T09:28:39;24.40;93.60
30381;DHT22;17169;50.966;11.038;2023-06-10T09:31:45;24.40;93.60
30381;DHT22;17169;50.966;11.038;2023-06-10T09:34:47;24.50;93.60
30381;DHT22;17169;50.966;11.038;2023-06-10T09:37:52;24.50;93.50
30381;DHT22;17169;50.966;11.038;2023-06-10T09:40:55;24.60;93.20
30381;DHT22;17169;50.966;11.038;2023-06-10T09:43:57;24.70;93.40
30381;DHT22;17169;50.966;11.038;2023-06-10T09:47:01;24.80;93.40
30381;DHT22;17169;50.966;11.038;2023-06-10T09:50:04;24.80;93.10
30381;DHT22;17169;50.966;11.038;2023-06-10T09:53:07;24.90;93.20
30381;DHT22;17169;50.966;11.038;2023-06-10T09:56:09;24.90;93.20
30381;DHT22;17169;50.966;11.038;2023-06-10T09:59:12;25.00;93.00
30381;DHT22;17169;50.966;11.038;2023-06-10T10:02:16;25.10;93.00
30381;DHT22;17169;50.966;11.038;2023-06-10T10:05:20;25.20;93.00
30381;DHT22;17169;50.966;11.038;2023-06-10T10:08:23;25.30;92.30
30381;DHT22;17169;50.966;11.038;2023-06-10T10:11:26;25.40;92.50
30381;DHT22;17169;50.966;11.038;2023-06-10T10:14:32;25.40;92.40
30381;DHT22;17169;50.966;11.038;2023-06-10T10:17:39;25.50;91.80
30381;DHT22;17169;50.966;11.038;2023-06-10T10:20:46;25.60;91.80
30381;DHT22;17169;50.966;11.038;2023-06-10T10:23:55;25.70;91.60
30381;DHT22;17169;50.966;11.038;2023-06-10T10:27:01;25.70;90.60
30381;DHT22;17169;50.966;11.038;2023-06-10T10:30:10;25.70;90.60
30381;DHT22;17169;50.966;11.038;2023-06-10T10:33:18;25.80;90.80
30381;DHT22;17169;50.966;11.038;2023-06-10T10:36:21;25.90;91.40
30381;DHT22;17169;50.966;11.038;2023-06-10T10:39:23;26.00;91.10
30381;DHT22;17169;50.966;11.038;2023-06-10T10:42:27;26.20;90.60
30381;DHT22;17169;50.966;11.038;2023-06-10T10:45:30;26.20;90.70
30381;DHT22;17169;50.966;11.038;2023-06-10T10:48:37;26.30;90.30
30381;DHT22;17169;50.966;11.038;2023-06-10T10:51:55;26.40;90.60
30381;DHT22;17169;50.966;11.038;2023-06-10T10:54:58;26.40;90.10
30381;DHT22;17169;50.966;11.038;2023-06-10T10:58:03;26.60;90.60
30381;DHT22;17169;50.966;11.038;2023-06-10T11:01:12;26.80;90.40
30381;DHT22;17169;50.966;11.038;2023-06-10T11:04:19;26.90;89.40
30381;DHT22;17169;50.966;11.038;2023-06-10T11:07:21;26.90;88.90
30381;DHT22;17169;50.966;11.038;2023-06-10T11:10:32;27.00;88.90
30381;DHT22;17169;50.966;11.038;2023-06-10T11:13:35;27.20;88.80
30381;DHT22;17169;50.966;11.038;2023-06-10T11:16:40;27.30;88.40
30381;DHT22;17169;50.966;11.038;2023-06-10T11:19:45;27.50;87.60
30381;DHT22;17169;50.966;11.038;2023-06-10T11:22:58;27.70;88.00
30381;DHT22;17169;50.966;11.038;2023-06-10T11:26:14;27.80;87.30
30381;DHT22;17169;50.966;11.038;2023-06-10T11:29:17;28.00;86.60
30381;DHT22;17169;50.966;11.038;2023-06-10T11:32:21;28.10;85.50
30381;DHT22;17169;50.966;11.038;2023-06-10T11:35:25;28.30;86.00
30381;DHT22;17169;50.966;11.038;2023-06-10T11:38:28;28.40;84.40
30381;DHT22;17169;50.966;11.038;2023-06-10T11:41:31;28.40;84.90
30381;DHT22;17169;50.966;11.038;2023-06-10T11:44:34;28.50;84.90
30381;DHT22;17169;50.966;11.038;2023-06-10T11:47:38;28.60;84.40
30381;DHT22;17169;50.966;11.038;2023-06-10T11:50:42;28.70;83.80
30381;DHT22;17169;50.966;11.038;2023-06-10T11:53:44;28.80;83.80
30381;DHT22;17169;50.966;11.038;2023-06-10T11:56:47;29.00;82.90
30381;DHT22;17169;50.966;11.038;2023-06-10T11:59:50;29.20;82.60
30381;DHT22;17169;50.966;11.038;2023-06-10T12:02:56;29.30;82.70
30381;DHT22;17169;50.966;11.038;2023-06-10T12:06:02;29.50;81.50
30381;DHT22;17169;50.966;11.038;2023-06-10T12:09:04;29.40;80.90
30381;DHT22;17169;50.966;11.038;2023-06-10T12:12:07;29.40;80.80
30381;DHT22;17169;50.966;11.038;2023-06-10T12:15:23;29.50;81.50
30381;DHT22;17169;50.966;11.038;2023-06-10T12:18:25;29.60;80.90
30381;DHT22;17169;50.966;11.038;2023-06-10T12:21:29;29.90;80.70
30381;DHT22;17169;50.966;11.038;2023-06-10T12:24:32;30.00;79.00
30381;DHT22;17169;50.966;11.038;2023-06-10T12:27:35;30.00;78.50
30381;DHT22;17169;50.966;11.038;2023-06-10T12:30:38;30.20;79.00
30381;DHT22;17169;50.966;11.038;2023-06-10T12:33:40;30.40;78.30
30381;DHT22;17169;50.966;11.038;2023-06-10T12:36:49;30.30;77.40
30381;DHT22;17169;50.966;11.038;2023-06-10T12:39:51;30.50;77.70
30381;DHT22;17169;50.966;11.038;2023-06-10T12:42:55;30.70;76.80
30381;DHT22;17169;50.966;11.038;2023-06-10T12:46:08;30.70;77.00
30381;DHT22;17169;50.966;11.038;2023-06-10T12:49:19;30.90;77.50
30381;DHT22;17169;50.966;11.038;2023-06-10T12:52:23;31.20;75.90
30381;DHT22;17169;50.966;11.038;2023-06-10T12:55:25;31.30;76.60
30381;DHT22;17169;50.966;11.038;2023-06-10T12:58:29;31.30;74.90
30381;DHT22;17169;50.966;11.038;2023-06-10T13:01:31;31.40;74.90
30381;DHT22;17169;50.966;11.038;2023-06-10T13:04:34;31.50;75.30
30381;DHT22;17169;50.966;11.038;2023-06-10T13:07:38;31.70;75.10
30381;DHT22;17169;50.966;11.038;2023-06-10T13:10:42;32.00;73.60
30381;DHT22;17169;50.966;11.038;2023-06-10T13:13:44;32.30;72.80
30381;DHT22;17169;50.966;11.038;2023-06-10T13:16:47;32.10;72.00
30381;DHT22;17169;50.966;11.038;2023-06-10T13:19:50;32.30;72.50
30381;DHT22;17169;50.966;11.038;2023-06-10T13:22:54;32.60;71.80
30381;DHT22;17169;50.966;11.038;2023-06-10T13:25:56;32.80;70.30
30381;DHT22;17169;50.966;11.038;2023-06-10T13:28:59;32.90;69.40
30381;DHT22;17169;50.966;11.038;2023-06-10T13:32:01;33.00;69.50
30381;DHT22;17169;50.966;11.038;2023-06-10T13:35:04;33.20;68.30
30381;DHT22;17169;50.966;11.038;2023-06-10T13:38:08;33.20;67.70
30381;DHT22;17169;50.966;11.038;2023-06-10T13:41:11;33.40;67.70
30381;DHT22;17169;50.966;11.038;2023-06-10T13:44:13;33.70;66.70
30381;DHT22;17169;50.966;11.038;2023-06-10T13:47:15;34.00;66.50
30381;DHT22;17169;50.966;11.038;2023-06-10T13:50:18;34.40;65.10
30381;DHT22;17169;50.966;11.038;2023-06-10T13:53:22;35.40;64.60
30381;DHT22;17169;50.966;11.038;2023-06-10T13:56:24;36.40;61.30
30381;DHT22;17169;50.966;11.038;2023-06-10T13:59:27;36.70;58.80
30381;DHT22;17169;50.966;11.038;2023-06-10T14:02:29;37.00;58.90
30381;DHT22;17169;50.966;11.038;2023-06-10T14:05:31;37.40;58.90
30381;DHT22;17169;50.966;11.038;2023-06-10T14:08:35;38.10;58.00
30381;DHT22;17169;50.966;11.038;2023-06-10T14:11:37;39.20;56.30
30381;DHT22;17169;50.966;11.038;2023-06-10T14:14:40;40.50;52.40
30381;DHT22;17169;50.966;11.038;2023-06-10T14:17:42;41.60;51.50
30381;DHT22;17169;50.966;11.038;2023-06-10T14:20:44;42.90;49.80
30381;DHT22;17169;50.966;11.038;2023-06-10T14:23:48;43.70;46.60
30381;DHT22;17169;50.966;11.038;2023-06-10T14:26:52;44.40;45.20
30381;DHT22;17169;50.966;11.038;2023-06-10T14:29:55;45.10;43.80
30381;DHT22;17169;50.966;11.038;2023-06-10T14:32:57;45.90;42.20
30381;DHT22;17169;50.966;11.038;2023-06-10T14:36:00;46.50;40.80
30381;DHT22;17169;50.966;11.038;2023-06-10T14:39:03;46.90;39.90
30381;DHT22;17169;50.966;11.038;2023-06-10T14:42:06;47.40;39.80
30381;DHT22;17169;50.966;11.038;2023-06-10T14:45:09;47.90;39.50
30381;DHT22;17169;50.966;11.038;2023-06-10T14:48:12;48.70;38.70
30381;DHT22;17169;50.966;11.038;2023-06-10T14:51:14;47.50;38.10
30381;DHT22;17169;50.966;11.038;2023-06-10T14:54:18;47.50;38.20
30381;DHT22;17169;50.966;11.038;2023-06-10T14:57:20;47.60;38.20
30381;DHT22;17169;50.966;11.038;2023-06-10T15:00:23;47.80;37.80
30381;DHT22;17169;50.966;11.038;2023-06-10T15:03:26;47.00;37.50
30381;DHT22;17169;50.966;11.038;2023-06-10T15:06:28;47.70;37.60
30381;DHT22;17169;50.966;11.038;2023-06-10T15:09:32;48.40;37.30
30381;DHT22;17169;50.966;11.038;2023-06-10T15:12:34;49.20;36.90
30381;DHT22;17169;50.966;11.038;2023-06-10T15:15:37;49.20;36.50
30381;DHT22;17169;50.966;11.038;2023-06-10T15:18:39;49.90;35.70
30381;DHT22;17169;50.966;11.038;2023-06-10T15:21:41;47.00;36.70
30381;DHT22;17169;50.966;11.038;2023-06-10T15:24:45;44.90;38.80
30381;DHT22;17169;50.966;11.038;2023-06-10T15:27:47;42.40;40.20
30381;DHT22;17169;50.966;11.038;2023-06-10T15:30:50;39.90;42.20
30381;DHT22;17169;50.966;11.038;2023-06-10T15:33:52;37.90;44.30
30381;DHT22;17169;50.966;11.038;2023-06-10T15:36:54;36.20;45.80
30381;DHT22;17169;50.966;11.038;2023-06-10T15:39:58;35.80;47.60
30381;DHT22;17169;50.966;11.038;2023-06-10T15:43:00;37.90;46.90
30381;DHT22;17169;50.966;11.038;2023-06-10T15:46:03;39.70;44.80
30381;DHT22;17169;50.966;11.038;2023-06-10T15:49:05;41.40;43.50
30381;DHT22;17169;50.966;11.038;2023-06-10T15:52:08;43.00;42.20
30381;DHT22;17169;50.966;11.038;2023-06-10T15:55:11;44.40;41.30
30381;DHT22;17169;50.966;11.038;2023-06-10T15:58:14;45.80;40.90
30381;DHT22;17169;50.966;11.038;2023-06-10T16:01:16;46.80;39.60
30381;DHT22;17169;50.966;11.038;2023-06-10T16:04:19;47.70;38.70
30381;DHT22;17169;50.966;11.038;2023-06-10T16:07:21;48.50;38.20
30381;DHT22;17169;50.966;11.038;2023-06-10T16:10:25;49.20;37.50
30381;DHT22;17169;50.966;11.038;2023-06-10T16:13:27;49.80;37.30
30381;DHT22;17169;50.966;11.038;2023-06-10T16:16:30;50.30;36.60
30381;DHT22;17169;50.966;11.038;2023-06-10T16:19:32;50.70;36.40
30381;DHT22;17169;50.966;11.038;2023-06-10T16:22:35;51.00;36.00
30381;DHT22;17169;50.966;11.038;2023-06-10T16:25:38;51.20;35.90
30381;DHT22;17169;50.966;11.038;2023-06-10T16:28:41;51.40;35.20
30381;DHT22;17169;50.966;11.038;2023-06-10T16:31:43;51.30;35.40
30381;DHT22;17169;50.966;11.038;2023-06-10T16:34:45;51.40;35.00
30381;DHT22;17169;50.966;11.038;2023-06-10T16:37:48;51.40;34.90
30381;DHT22;17169;50.966;11.038;2023-06-10T16:40:52;51.30;35.10
30381;DHT22;17169;50.966;11.038;2023-06-10T16:43:54;51.30;35.00
30381;DHT22;17169;50.966;11.038;2023-06-10T16:46:56;50.80;34.80
30381;DHT22;17169;50.966;11.038;2023-06-10T16:49:59;50.60;34.90
30381;DHT22;17169;50.966;11.038;2023-06-10T16:53:01;50.30;35.10
30381;DHT22;17169;50.966;11.038;2023-06-10T16:56:05;49.70;35.40
30381;DHT22;17169;50.966;11.038;2023-06-10T16:59:07;49.50;35.70
30381;DHT22;17169;50.966;11.038;2023-06-10T17:02:10;49.00;35.90
30381;DHT22;17169;50.966;11.038;2023-06-10T17:05:12;48.60;36.20
30381;DHT22;17169;50.966;11.038;2023-06-10T17:08:15;47.90;36.60
30381;DHT22;17169;50.966;11.038;2023-06-10T17:11:19;47.50;37.10
30381;DHT22;17169;50.966;11.038;2023-06-10T17:14:22;47.20;37.20
30381;DHT22;17169;50.966;11.038;2023-06-10T17:17:26;44.60;37.70
30381;DHT22;17169;50.966;11.038;2023-06-10T17:20:29;42.20;39.10
30381;DHT22;17169;50.966;11.038;2023-06-10T17:23:31;40.10;40.90
30381;DHT22;17169;50.966;11.038;2023-06-10T17:26:35;38.10;43.10
30381;DHT22;17169;50.966;11.038;2023-06-10T17:29:37;36.40;45.10
30381;DHT22;17169;50.966;11.038;2023-06-10T17:32:40;34.90;46.90
30381;DHT22;17169;50.966;11.038;2023-06-10T17:35:43;33.80;48.50
30381;DHT22;17169;50.966;11.038;2023-06-10T17:38:45;33.00;50.20
30381;DHT22;17169;50.966;11.038;2023-06-10T17:41:49;32.20;51.40
30381;DHT22;17169;50.966;11.038;2023-06-10T17:44:51;31.50;52.40
30381;DHT22;17169;50.966;11.038;2023-06-10T17:47:54;30.90;53.50
30381;DHT22;17169;50.966;11.038;2023-06-10T17:50:56;30.30;54.60
30381;DHT22;17169;50.966;11.038;2023-06-10T17:53:58;29.60;55.80
30381;DHT22;17169;50.966;11.038;2023-06-10T17:57:03;29.40;56.50
30381;DHT22;17169;50.966;11.038;2023-06-10T18:00:07;29.00;57.20
30381;DHT22;17169;50.966;11.038;2023-06-10T18:03:09;28.60;58.30
30381;DHT22;17169;50.966;11.038;2023-06-10T18:06:12;28.20;59.40
30381;DHT22;17169;50.966;11.038;2023-06-10T18:09:15;27.80;60.00
30381;DHT22;17169;50.966;11.038;2023-06-10T18:12:19;27.60;60.60
30381;DHT22;17169;50.966;11.038;2023-06-10T18:15:21;27.30;61.60
30381;DHT22;17169;50.966;11.038;2023-06-10T18:18:24;27.00;61.30
30381;DHT22;17169;50.966;11.038;2023-06-10T18:21:26;26.70;61.00
30381;DHT22;17169;50.966;11.038;2023-06-10T18:24:28;26.50;61.30
30381;DHT22;17169;50.966;11.038;2023-06-10T18:27:32;26.40;61.90
30381;DHT22;17169;50.966;11.038;2023-06-10T18:30:34;26.20;62.30
30381;DHT22;17169;50.966;11.038;2023-06-10T18:33:37;26.00;62.60
30381;DHT22;17169;50.966;11.038;2023-06-10T18:36:39;25.80;63.00
30381;DHT22;17169;50.966;11.038;2023-06-10T18:39:41;25.70;63.50
30381;DHT22;17169;50.966;11.038;2023-06-10T18:42:45;25.60;63.80
30381;DHT22;17169;50.966;11.038;2023-06-10T18:45:47;25.50;64.30
30381;DHT22;17169;50.966;11.038;2023-06-10T18:48:50;25.30;64.50
30381;DHT22;17169;50.966;11.038;2023-06-10T18:51:52;25.20;65.10
30381;DHT22;17169;50.966;11.038;2023-06-10T18:54:54;25.10;65.30
30381;DHT22;17169;50.966;11.038;2023-06-10T18:57:58;25.00;65.70